createdAt,value
2018-12-31T00:01:00.517Z,4.70
2018-12-31T00:03:30.015Z,4.70
2018-12-31T00:05:59.539Z,4.70
2018-12-31T00:08:29.020Z,4.80
2018-12-31T00:10:58.606Z,4.80
2018-12-31T00:13:28.107Z,4.80
2018-12-31T00:15:57.673Z,4.70
2018-12-31T00:18:27.255Z,4.70
2018-12-31T00:20:56.704Z,4.70
2018-12-31T00:23:26.246Z,4.70
2018-12-31T00:25:55.794Z,4.70
2018-12-31T00:28:25.260Z,4.70
2018-12-31T00:30:54.734Z,4.60
2018-12-31T00:33:24.259Z,4.70
2018-12-31T00:35:53.728Z,4.60
2018-12-31T00:38:23.500Z,4.60
2018-12-31T00:40:52.898Z,4.70
2018-12-31T00:43:22.404Z,4.80
2018-12-31T00:45:51.827Z,4.80
2018-12-31T00:48:21.272Z,4.80
2018-12-31T00:50:50.703Z,4.80
2018-12-31T00:53:20.139Z,4.80
2018-12-31T00:55:49.578Z,4.80
2018-12-31T00:58:18.977Z,4.80
2018-12-31T01:00:48.488Z,4.90
2018-12-31T01:03:17.890Z,4.90
2018-12-31T01:05:47.381Z,5.00
2018-12-31T01:08:16.831Z,5.00
2018-12-31T01:10:46.542Z,5.00
2018-12-31T01:13:16.079Z,5.00
2018-12-31T01:15:45.630Z,5.00
2018-12-31T01:18:15.149Z,5.00
2018-12-31T01:20:44.579Z,5.00
2018-12-31T01:23:14.085Z,5.00
2018-12-31T01:25:43.539Z,5.10
2018-12-31T01:28:12.977Z,5.00
2018-12-31T01:30:42.423Z,5.10
2018-12-31T01:33:11.899Z,5.00
2018-12-31T01:35:41.389Z,5.00
2018-12-31T01:38:10.851Z,5.00
2018-12-31T01:40:40.251Z,5.00
2018-12-31T01:43:09.775Z,5.10
2018-12-31T01:45:39.212Z,5.00
2018-12-31T01:48:08.710Z,5.00
2018-12-31T01:50:38.106Z,5.00
2018-12-31T01:53:07.572Z,5.00
2018-12-31T01:55:37.085Z,5.00
2018-12-31T01:58:08.897Z,4.90
2018-12-31T02:00:38.864Z,4.90
2018-12-31T02:03:08.430Z,4.90
2018-12-31T02:05:38.090Z,4.90
2018-12-31T02:08:07.816Z,5.00
2018-12-31T02:10:42.668Z,4.90
2018-12-31T02:13:15.533Z,4.90
2018-12-31T02:15:49.548Z,4.90
2018-12-31T02:18:19.256Z,4.90
2018-12-31T02:20:48.871Z,4.90
2018-12-31T02:23:20.243Z,4.90
2018-12-31T02:25:50.060Z,4.80
2018-12-31T02:28:19.752Z,4.80
2018-12-31T02:30:52.681Z,4.80
2018-12-31T02:33:24.199Z,4.80
2018-12-31T02:35:56.885Z,4.80
2018-12-31T02:38:28.966Z,4.90
2018-12-31T02:40:58.634Z,4.90
2018-12-31T02:43:33.072Z,4.90
2018-12-31T02:46:03.084Z,4.90
2018-12-31T02:48:34.241Z,4.90
2018-12-31T02:51:04.031Z,4.90
2018-12-31T02:53:36.854Z,4.90
2018-12-31T02:56:09.076Z,4.90
2018-12-31T02:58:40.916Z,4.90
2018-12-31T03:01:10.718Z,4.90
2018-12-31T03:03:41.196Z,4.90
2018-12-31T03:06:11.192Z,4.90
2018-12-31T03:08:40.858Z,4.90
2018-12-31T03:11:11.848Z,4.80
2018-12-31T03:13:42.995Z,4.80
2018-12-31T03:16:12.814Z,4.80
2018-12-31T03:18:42.600Z,4.70
2018-12-31T03:21:12.291Z,4.70
2018-12-31T03:23:44.655Z,4.70
2018-12-31T03:26:18.301Z,4.70
2018-12-31T03:28:48.040Z,4.60
2018-12-31T03:31:20.005Z,4.60
2018-12-31T03:33:49.847Z,4.60
2018-12-31T03:36:22.744Z,4.60
2018-12-31T03:38:52.565Z,4.60
2018-12-31T03:41:23.961Z,4.60
2018-12-31T03:43:54.768Z,4.50
2018-12-31T03:46:24.313Z,4.50
2018-12-31T03:49:01.206Z,4.50
2018-12-31T03:51:33.574Z,4.40
2018-12-31T03:54:03.347Z,4.40
2018-12-31T03:56:33.468Z,4.40
2018-12-31T03:59:03.224Z,4.40
2018-12-31T04:01:33.324Z,4.40
2018-12-31T04:04:02.944Z,4.40
2018-12-31T04:06:32.749Z,4.30
2018-12-31T04:09:02.299Z,4.30
2018-12-31T04:11:34.048Z,4.30
2018-12-31T04:14:05.819Z,4.30
2018-12-31T04:16:35.713Z,4.30
2018-12-31T04:19:05.600Z,4.30
2018-12-31T04:21:38.464Z,4.30
2018-12-31T04:24:10.667Z,4.30
2018-12-31T04:26:40.629Z,4.30
2018-12-31T04:29:10.327Z,4.40
2018-12-31T04:31:41.724Z,4.40
2018-12-31T04:34:11.151Z,4.40
2018-12-31T04:36:40.791Z,4.40
2018-12-31T04:39:13.498Z,4.40
2018-12-31T04:41:43.535Z,4.50
2018-12-31T04:44:13.489Z,4.50
2018-12-31T04:46:43.292Z,4.50
2018-12-31T04:49:12.912Z,4.50
2018-12-31T04:51:45.381Z,4.50
2018-12-31T04:54:15.123Z,4.60
2018-12-31T04:56:47.615Z,4.50
2018-12-31T04:59:17.785Z,4.50
2018-12-31T05:01:50.015Z,4.60
2018-12-31T05:04:23.803Z,4.60
2018-12-31T05:06:53.497Z,4.70
2018-12-31T05:09:24.428Z,4.70
2018-12-31T05:11:54.264Z,4.80
2018-12-31T05:14:24.326Z,4.90
2018-12-31T05:16:56.359Z,4.80
2018-12-31T05:19:29.111Z,4.80
2018-12-31T05:21:58.769Z,4.80
2018-12-31T05:24:31.237Z,4.80
2018-12-31T05:27:03.234Z,4.90
2018-12-31T05:29:33.381Z,4.90
2018-12-31T05:32:03.589Z,4.90
2018-12-31T05:34:36.095Z,4.80
2018-12-31T05:37:07.645Z,4.90
2018-12-31T05:39:37.339Z,4.90
2018-12-31T05:42:09.641Z,4.90
2018-12-31T05:44:39.412Z,4.90
2018-12-31T05:47:09.198Z,4.90
2018-12-31T05:49:42.882Z,4.90
2018-12-31T05:52:13.945Z,4.90
2018-12-31T05:54:43.737Z,4.90
2018-12-31T05:57:13.362Z,4.90
2018-12-31T05:59:42.840Z,4.90
2018-12-31T06:02:12.292Z,4.90
2018-12-31T06:04:41.749Z,5.00
2018-12-31T06:07:11.262Z,4.90
2018-12-31T06:09:40.772Z,5.00
2018-12-31T06:12:10.197Z,4.90
2018-12-31T06:14:39.636Z,5.00
2018-12-31T06:17:12.600Z,5.00
2018-12-31T06:19:42.063Z,5.00
2018-12-31T06:22:11.561Z,5.00
2018-12-31T06:24:41.078Z,5.00
2018-12-31T06:27:10.542Z,5.00
2018-12-31T06:29:40.021Z,5.00
2018-12-31T06:32:09.569Z,5.00
2018-12-31T06:34:39.060Z,5.00
2018-12-31T06:37:08.498Z,5.00
2018-12-31T06:39:38.054Z,5.00
2018-12-31T06:42:07.430Z,5.00
2018-12-31T06:44:36.937Z,5.00
2018-12-31T06:47:06.431Z,5.00
2018-12-31T06:49:35.915Z,5.00
2018-12-31T06:52:05.353Z,4.90
2018-12-31T06:54:34.840Z,4.90
2018-12-31T06:57:04.292Z,4.90
2018-12-31T06:59:33.938Z,4.90
2018-12-31T07:02:03.385Z,4.80
2018-12-31T07:04:32.847Z,4.80
2018-12-31T07:07:02.333Z,4.80
2018-12-31T07:09:31.777Z,4.80
2018-12-31T07:12:03.091Z,4.90
2018-12-31T07:14:32.607Z,4.80
2018-12-31T07:17:02.235Z,4.80
2018-12-31T07:19:31.713Z,4.80
2018-12-31T07:22:03.183Z,4.70
2018-12-31T07:24:32.825Z,4.70
2018-12-31T07:27:02.399Z,4.80
2018-12-31T07:29:31.936Z,4.80
2018-12-31T07:32:01.363Z,4.80
2018-12-31T07:34:30.884Z,4.80
2018-12-31T07:37:00.561Z,4.80
2018-12-31T07:39:30.109Z,4.80
2018-12-31T07:42:03.549Z,4.80
2018-12-31T07:44:33.003Z,4.80
2018-12-31T07:47:02.518Z,4.90
2018-12-31T07:49:32.081Z,4.90
2018-12-31T07:52:01.587Z,4.90
2018-12-31T07:54:31.095Z,4.90
2018-12-31T07:57:03.835Z,4.90
2018-12-31T07:59:33.434Z,4.90
2018-12-31T08:02:04.883Z,4.90
2018-12-31T08:04:34.425Z,4.90
2018-12-31T08:07:04.181Z,4.90
2018-12-31T08:09:33.651Z,5.00
2018-12-31T08:12:03.415Z,4.90
2018-12-31T08:14:34.685Z,4.90
2018-12-31T08:17:07.499Z,4.90
2018-12-31T08:19:37.061Z,4.90
2018-12-31T08:22:07.723Z,4.90
2018-12-31T08:24:40.303Z,4.90
2018-12-31T08:27:11.115Z,4.90
2018-12-31T08:29:40.615Z,4.90
2018-12-31T08:32:12.006Z,4.90
2018-12-31T08:34:41.456Z,4.90
2018-12-31T08:37:11.007Z,4.90
2018-12-31T08:39:40.953Z,5.00
2018-12-31T08:42:10.435Z,5.00
2018-12-31T08:44:42.051Z,5.00
2018-12-31T08:47:11.588Z,5.10
2018-12-31T08:49:41.141Z,5.20
2018-12-31T08:52:11.042Z,5.20
2018-12-31T08:54:40.611Z,5.30
2018-12-31T08:57:10.040Z,5.30
2018-12-31T08:59:39.601Z,5.30
2018-12-31T09:02:09.048Z,5.30
2018-12-31T09:04:41.604Z,5.30
2018-12-31T09:07:11.219Z,5.40
2018-12-31T09:09:40.787Z,5.40
2018-12-31T09:12:12.297Z,5.40
2018-12-31T09:14:41.809Z,5.40
2018-12-31T09:17:11.822Z,5.40
2018-12-31T09:19:41.371Z,5.40
2018-12-31T09:22:10.827Z,5.40
2018-12-31T09:24:44.641Z,5.50
2018-12-31T09:27:11.546Z,5.50
2018-12-31T09:29:41.101Z,5.50
2018-12-31T09:32:10.594Z,5.60
2018-12-31T09:34:40.159Z,5.60
2018-12-31T09:37:09.640Z,5.60
2018-12-31T09:39:39.188Z,5.60
2018-12-31T09:42:08.791Z,5.60
2018-12-31T09:44:41.205Z,5.70
2018-12-31T09:47:13.974Z,5.70
2018-12-31T09:49:43.462Z,5.80
2018-12-31T09:52:12.915Z,5.80
2018-12-31T09:54:42.407Z,6.00
2018-12-31T09:57:11.862Z,6.10
2018-12-31T09:59:43.645Z,6.10
2018-12-31T10:02:13.268Z,6.20
2018-12-31T10:04:42.704Z,6.30
2018-12-31T10:07:12.811Z,6.30
2018-12-31T10:09:42.411Z,6.40
2018-12-31T10:12:12.052Z,6.50
2018-12-31T10:14:41.606Z,6.60
2018-12-31T10:17:12.570Z,6.70
2018-12-31T10:19:43.334Z,6.80
2018-12-31T10:22:12.820Z,6.80
2018-12-31T10:24:42.394Z,6.60
2018-12-31T10:27:11.917Z,6.60
2018-12-31T10:29:41.443Z,6.60
2018-12-31T10:32:11.017Z,6.60
2018-12-31T10:34:40.546Z,6.60
2018-12-31T10:37:10.004Z,6.60
2018-12-31T10:39:39.590Z,6.60
2018-12-31T10:42:09.047Z,6.60
2018-12-31T10:44:38.476Z,6.70
2018-12-31T10:47:09.236Z,6.80
2018-12-31T10:49:38.630Z,6.90
2018-12-31T10:52:08.119Z,6.90
2018-12-31T10:54:37.510Z,6.90
2018-12-31T10:57:07.056Z,6.90
2018-12-31T10:59:37.982Z,7.00
2018-12-31T11:02:07.426Z,6.90
2018-12-31T11:04:36.924Z,6.90
2018-12-31T11:07:06.425Z,6.80
2018-12-31T11:09:35.857Z,6.70
2018-12-31T11:12:05.315Z,6.60
2018-12-31T11:14:34.856Z,6.60
2018-12-31T11:17:09.235Z,6.60
2018-12-31T11:19:38.658Z,6.60
2018-12-31T11:22:08.024Z,6.40
2018-12-31T11:24:37.342Z,6.40
2018-12-31T11:27:06.718Z,6.40
2018-12-31T11:29:36.076Z,6.40
2018-12-31T11:32:05.530Z,6.40
2018-12-31T11:34:37.702Z,6.30
2018-12-31T11:37:07.270Z,6.40
2018-12-31T11:39:36.650Z,6.40
2018-12-31T11:42:06.195Z,6.40
2018-12-31T11:44:35.696Z,6.50
2018-12-31T11:47:08.372Z,6.60
2018-12-31T11:49:37.794Z,6.60
2018-12-31T11:52:07.293Z,6.70
2018-12-31T11:54:36.985Z,6.80
2018-12-31T11:57:06.546Z,6.70
2018-12-31T11:59:36.150Z,6.80
2018-12-31T12:02:05.752Z,6.80
2018-12-31T12:04:37.684Z,6.90
2018-12-31T12:07:07.141Z,6.80
2018-12-31T12:09:36.727Z,6.80
2018-12-31T12:12:06.278Z,6.60
2018-12-31T12:14:36.276Z,6.60
2018-12-31T12:17:07.092Z,6.50
2018-12-31T12:19:36.682Z,6.50
2018-12-31T12:22:06.191Z,6.50
2018-12-31T12:24:35.859Z,6.50
2018-12-31T12:27:05.768Z,6.60
2018-12-31T12:29:35.317Z,6.70
2018-12-31T12:32:10.254Z,6.70
2018-12-31T12:34:39.845Z,6.70
2018-12-31T12:37:09.678Z,6.60
2018-12-31T12:39:42.287Z,6.60
2018-12-31T12:42:12.098Z,6.60
2018-12-31T12:44:41.754Z,6.60
2018-12-31T12:47:11.333Z,6.60
2018-12-31T12:49:40.910Z,6.60
2018-12-31T12:52:10.506Z,6.70
2018-12-31T12:54:40.131Z,6.60
2018-12-31T12:57:09.713Z,6.60
2018-12-31T12:59:39.394Z,6.60
2018-12-31T13:02:09.250Z,6.60
2018-12-31T13:04:40.563Z,6.60
2018-12-31T13:07:11.904Z,6.60
2018-12-31T13:09:41.526Z,6.60
2018-12-31T13:12:11.448Z,6.60
2018-12-31T13:14:41.014Z,6.60
2018-12-31T13:17:14.278Z,6.60
2018-12-31T13:19:43.895Z,6.50
2018-12-31T13:22:13.470Z,6.50
2018-12-31T13:24:42.982Z,6.50
2018-12-31T13:27:12.578Z,6.40
2018-12-31T13:29:42.128Z,6.40
2018-12-31T13:32:11.724Z,6.40
2018-12-31T13:34:44.648Z,6.40
2018-12-31T13:37:14.265Z,6.40
2018-12-31T13:39:43.738Z,6.40
2018-12-31T13:42:13.279Z,6.40
2018-12-31T13:44:42.734Z,6.40
2018-12-31T13:47:12.201Z,6.40
2018-12-31T13:49:41.796Z,6.40
2018-12-31T13:52:11.342Z,6.30
2018-12-31T13:54:40.790Z,6.40
2018-12-31T13:57:10.238Z,6.30
2018-12-31T13:59:39.700Z,6.30
2018-12-31T14:02:09.240Z,6.20
2018-12-31T14:04:38.732Z,6.20
2018-12-31T14:07:08.138Z,6.20
2018-12-31T14:09:37.650Z,6.20
2018-12-31T14:12:07.078Z,6.20
2018-12-31T14:14:36.631Z,6.20
2018-12-31T14:17:06.112Z,6.20
2018-12-31T14:19:35.559Z,6.20
2018-12-31T14:22:05.446Z,6.10
2018-12-31T14:24:34.881Z,6.10
2018-12-31T14:27:04.381Z,6.10
2018-12-31T14:29:33.826Z,6.00
2018-12-31T14:32:03.315Z,6.00
2018-12-31T14:34:32.812Z,5.90
2018-12-31T14:37:03.282Z,5.90
2018-12-31T14:39:32.719Z,5.80
2018-12-31T14:42:02.316Z,5.80
2018-12-31T14:44:31.742Z,5.70
2018-12-31T14:47:01.202Z,5.60
2018-12-31T14:49:30.703Z,5.60
2018-12-31T14:52:00.133Z,5.50
2018-12-31T14:54:29.623Z,5.50
2018-12-31T14:56:59.093Z,5.40
2018-12-31T14:59:28.541Z,5.40
2018-12-31T15:01:58.862Z,5.40
2018-12-31T15:04:28.356Z,5.30
2018-12-31T15:06:57.776Z,5.30
2018-12-31T15:09:27.665Z,5.20
2018-12-31T15:11:57.085Z,5.20
2018-12-31T15:14:26.485Z,5.20
2018-12-31T15:16:55.955Z,5.10
2018-12-31T15:19:25.347Z,5.00
2018-12-31T15:21:55.089Z,4.90
2018-12-31T15:24:24.504Z,4.90
2018-12-31T15:26:53.957Z,4.90
2018-12-31T15:29:23.343Z,4.80
2018-12-31T15:31:52.781Z,4.80
2018-12-31T15:34:22.287Z,4.70
2018-12-31T15:36:51.668Z,4.60
2018-12-31T15:39:21.102Z,4.60
2018-12-31T15:41:50.500Z,4.60
2018-12-31T15:44:19.925Z,4.50
2018-12-31T15:46:49.317Z,4.50
2018-12-31T15:49:18.741Z,4.40
2018-12-31T15:51:48.154Z,4.40
2018-12-31T15:54:17.570Z,4.40
2018-12-31T15:56:47.062Z,4.40
2018-12-31T15:59:16.532Z,4.30
2018-12-31T16:01:45.946Z,4.30
2018-12-31T16:04:15.550Z,4.30
2018-12-31T16:06:45.050Z,4.30
2018-12-31T16:09:14.544Z,4.30
2018-12-31T16:11:43.966Z,4.30
2018-12-31T16:14:15.563Z,4.20
2018-12-31T16:16:46.574Z,4.10
2018-12-31T16:19:16.084Z,4.10
2018-12-31T16:21:45.769Z,4.00
2018-12-31T16:24:15.212Z,3.90
2018-12-31T16:26:44.705Z,3.90
2018-12-31T16:29:14.148Z,3.80
2018-12-31T16:31:43.701Z,3.70
2018-12-31T16:34:13.450Z,3.70
2018-12-31T16:36:42.986Z,3.70
2018-12-31T16:39:12.435Z,3.60
2018-12-31T16:41:41.899Z,3.60
2018-12-31T16:44:11.481Z,3.50
2018-12-31T16:46:41.261Z,3.50
2018-12-31T16:49:10.842Z,3.50
2018-12-31T16:51:40.349Z,3.50
2018-12-31T16:54:09.834Z,3.40
2018-12-31T16:56:39.364Z,3.40
2018-12-31T16:59:08.974Z,3.30
2018-12-31T17:01:38.402Z,3.30
2018-12-31T17:04:07.908Z,3.30
2018-12-31T17:06:37.419Z,3.30
2018-12-31T17:09:08.266Z,3.30
2018-12-31T17:11:37.919Z,3.30
2018-12-31T17:14:07.370Z,3.20
2018-12-31T17:16:38.415Z,3.20
2018-12-31T17:19:07.840Z,3.20
2018-12-31T17:21:37.362Z,3.20
2018-12-31T17:24:06.801Z,3.20
2018-12-31T17:26:37.728Z,3.30
2018-12-31T17:29:07.220Z,3.30
2018-12-31T17:31:36.684Z,3.30
2018-12-31T17:34:06.206Z,3.40
2018-12-31T17:36:35.675Z,3.40
2018-12-31T17:39:08.503Z,3.40
2018-12-31T17:41:38.002Z,3.40
2018-12-31T17:44:07.479Z,3.40
2018-12-31T17:46:37.343Z,3.40
2018-12-31T17:49:06.842Z,3.40
2018-12-31T17:51:36.307Z,3.40
2018-12-31T17:54:06.120Z,3.40
2018-12-31T17:56:35.567Z,3.40
2018-12-31T17:59:05.286Z,3.40
2018-12-31T18:01:34.853Z,3.40
2018-12-31T18:04:04.296Z,3.40
2018-12-31T18:06:36.916Z,3.40
2018-12-31T18:09:07.975Z,3.40
2018-12-31T18:11:37.540Z,3.40
2018-12-31T18:14:06.960Z,3.40
2018-12-31T18:16:37.152Z,3.40
2018-12-31T18:19:06.628Z,3.40
2018-12-31T18:21:36.136Z,3.40
2018-12-31T18:24:05.551Z,3.40
2018-12-31T18:26:35.081Z,3.40
2018-12-31T18:29:04.524Z,3.40
2018-12-31T18:31:33.948Z,3.40
2018-12-31T18:34:03.846Z,3.50
2018-12-31T18:36:33.315Z,3.50
2018-12-31T18:39:03.384Z,3.50
2018-12-31T18:41:32.795Z,3.50
2018-12-31T18:44:02.880Z,3.40
2018-12-31T18:46:32.530Z,3.50
2018-12-31T18:49:03.110Z,3.50
2018-12-31T18:51:32.506Z,3.50
2018-12-31T18:54:01.952Z,3.50
2018-12-31T18:56:31.394Z,3.50
2018-12-31T18:59:01.194Z,3.50
2018-12-31T19:01:30.630Z,3.50
2018-12-31T19:03:59.950Z,3.50
2018-12-31T19:06:29.318Z,3.50
2018-12-31T19:08:58.699Z,3.50
2018-12-31T19:11:28.222Z,3.50
2018-12-31T19:13:57.530Z,3.50
2018-12-31T19:16:27.021Z,3.60
2018-12-31T19:18:56.411Z,3.60
2018-12-31T19:21:25.799Z,3.60
2018-12-31T19:23:55.238Z,3.60
2018-12-31T19:26:24.663Z,3.60
2018-12-31T19:28:54.046Z,3.60
2018-12-31T19:31:23.489Z,3.60
2018-12-31T19:33:52.906Z,3.60
2018-12-31T19:36:22.602Z,3.60
2018-12-31T19:38:52.038Z,3.60
2018-12-31T19:41:21.434Z,3.60
2018-12-31T19:43:50.862Z,3.50
2018-12-31T19:46:20.248Z,3.50
2018-12-31T19:48:49.724Z,3.50
2018-12-31T19:51:19.102Z,3.40
2018-12-31T19:53:48.516Z,3.40
2018-12-31T19:56:17.936Z,3.40
2018-12-31T19:58:47.316Z,3.40
2018-12-31T20:01:16.826Z,3.40
2018-12-31T20:03:46.193Z,3.40
2018-12-31T20:06:15.641Z,3.40
2018-12-31T20:08:45.039Z,3.50
2018-12-31T20:11:14.433Z,3.50
2018-12-31T20:13:43.833Z,3.50
2018-12-31T20:16:13.261Z,3.50
2018-12-31T20:18:42.693Z,3.60
2018-12-31T20:21:12.086Z,3.50
2018-12-31T20:23:41.525Z,3.50
2018-12-31T20:26:11.121Z,3.50
2018-12-31T20:28:40.531Z,3.50
2018-12-31T20:31:09.925Z,3.50
2018-12-31T20:33:39.349Z,3.40
2018-12-31T20:36:08.736Z,3.40
2018-12-31T20:38:38.161Z,3.40
2018-12-31T20:41:08.823Z,3.50
2018-12-31T20:43:38.375Z,3.50
2018-12-31T20:46:07.857Z,3.50
2018-12-31T20:48:37.278Z,3.40
2018-12-31T20:51:06.695Z,3.40
2018-12-31T20:53:36.086Z,3.40
2018-12-31T20:56:05.519Z,3.40
2018-12-31T20:58:34.896Z,3.40
2018-12-31T21:01:04.314Z,3.30
2018-12-31T21:03:33.691Z,3.30
2018-12-31T21:06:03.134Z,3.30
2018-12-31T21:08:32.522Z,3.30
2018-12-31T21:11:02.197Z,3.30
2018-12-31T21:13:31.629Z,3.20
2018-12-31T21:16:01.041Z,3.20
2018-12-31T21:18:30.503Z,3.20
2018-12-31T21:20:59.904Z,3.10
2018-12-31T21:23:29.329Z,3.00
2018-12-31T21:25:58.682Z,3.00
2018-12-31T21:28:28.135Z,2.90
2018-12-31T21:30:57.621Z,2.90
2018-12-31T21:33:27.051Z,2.90
2018-12-31T21:35:56.448Z,2.80
2018-12-31T21:38:25.892Z,2.80
2018-12-31T21:40:55.277Z,2.70
2018-12-31T21:43:24.881Z,2.70
2018-12-31T21:45:54.325Z,2.70
2018-12-31T21:48:23.731Z,2.70
2018-12-31T21:50:53.150Z,2.60
2018-12-31T21:53:22.471Z,2.60
2018-12-31T21:55:52.213Z,2.60
2018-12-31T21:58:21.618Z,2.60
2018-12-31T22:00:51.119Z,2.60
2018-12-31T22:03:20.497Z,2.60
2018-12-31T22:05:49.825Z,2.50
2018-12-31T22:08:19.780Z,2.50
2018-12-31T22:10:49.216Z,2.50
2018-12-31T22:13:18.644Z,2.50
2018-12-31T22:15:48.023Z,2.50
2018-12-31T22:18:17.503Z,2.50
2018-12-31T22:20:47.190Z,2.40
2018-12-31T22:23:16.608Z,2.40
2018-12-31T22:25:46.024Z,2.40
2018-12-31T22:28:15.349Z,2.40
2018-12-31T22:30:44.849Z,2.40
2018-12-31T22:33:14.730Z,2.40
2018-12-31T22:35:44.165Z,2.30
2018-12-31T22:38:13.594Z,2.30
2018-12-31T22:40:43.072Z,2.30
2018-12-31T22:43:12.407Z,2.20
2018-12-31T22:45:42.200Z,2.20
2018-12-31T22:48:11.590Z,2.20
2018-12-31T22:50:40.987Z,2.10
2018-12-31T22:53:10.439Z,2.10
2018-12-31T22:55:39.837Z,2.00
2018-12-31T22:58:09.754Z,2.00
2018-12-31T23:00:39.063Z,2.00
2018-12-31T23:03:08.500Z,1.90
2018-12-31T23:05:39.825Z,1.90
2018-12-31T23:08:09.499Z,1.90
2018-12-31T23:10:41.673Z,1.80
2018-12-31T23:13:11.087Z,1.80
2018-12-31T23:15:40.536Z,1.80
2018-12-31T23:18:09.955Z,1.80
2018-12-31T23:20:39.427Z,1.80
2018-12-31T23:23:08.808Z,1.70
2018-12-31T23:25:38.286Z,1.70
2018-12-31T23:28:07.701Z,1.70
2018-12-31T23:30:37.070Z,1.60
2018-12-31T23:33:06.466Z,1.60
2018-12-31T23:35:35.795Z,1.60
2018-12-31T23:38:05.238Z,1.60
2018-12-31T23:40:36.068Z,1.50
2018-12-31T23:43:06.530Z,1.50
2018-12-31T23:45:36.186Z,1.50
2018-12-31T23:48:05.610Z,1.50
2018-12-31T23:50:35.027Z,1.50
2018-12-31T23:53:04.382Z,1.50
2018-12-31T23:55:33.782Z,1.50
2018-12-31T23:58:03.640Z,1.40
